createdAt,value
2023-04-01T00:00:29.024Z,100.00
2023-04-01T00:02:56.791Z,100.00
2023-04-01T00:05:25.649Z,100.00
2023-04-01T00:07:53.198Z,100.00
2023-04-01T00:10:20.875Z,100.00
2023-04-01T00:12:48.172Z,100.00
2023-04-01T00:15:15.508Z,100.00
2023-04-01T00:17:42.817Z,100.00
2023-04-01T00:20:10.749Z,100.00
2023-04-01T00:22:38.049Z,100.00
2023-04-01T00:25:05.857Z,100.00
2023-04-01T00:27:33.180Z,100.00
2023-04-01T00:30:00.478Z,100.00
2023-04-01T00:32:28.006Z,100.00
2023-04-01T00:34:55.499Z,100.00
2023-04-01T00:37:22.970Z,100.00
2023-04-01T00:39:50.212Z,100.00
2023-04-01T00:42:17.498Z,100.00
2023-04-01T00:44:46.654Z,100.00
2023-04-01T00:47:14.041Z,100.00
2023-04-01T00:49:43.464Z,100.00
2023-04-01T00:52:12.512Z,100.00
2023-04-01T00:54:43.497Z,100.00
2023-04-01T00:57:13.647Z,100.00
2023-04-01T00:59:43.825Z,100.00
2023-04-01T01:02:12.561Z,100.00
2023-04-01T01:04:40.013Z,100.00
2023-04-01T01:07:16.876Z,100.00
2023-04-01T01:09:52.556Z,100.00
2023-04-01T01:12:36.354Z,100.00
2023-04-01T01:15:03.917Z,100.00
2023-04-01T01:17:46.618Z,100.00
2023-04-01T01:20:32.728Z,100.00
2023-04-01T01:23:03.047Z,100.00
2023-04-01T01:25:49.981Z,100.00
2023-04-01T01:28:23.472Z,100.00
2023-04-01T01:30:56.100Z,100.00
2023-04-01T01:33:36.683Z,100.00
2023-04-01T01:36:09.593Z,100.00
2023-04-01T01:38:37.928Z,100.00
2023-04-01T01:41:06.730Z,100.00
2023-04-01T01:43:40.589Z,100.00
2023-04-01T01:46:13.391Z,100.00
2023-04-01T01:48:43.089Z,100.00
2023-04-01T01:51:10.456Z,100.00
2023-04-01T01:53:37.921Z,100.00
2023-04-01T01:56:05.590Z,100.00
2023-04-01T01:58:49.029Z,100.00
2023-04-01T02:01:22.837Z,100.00
2023-04-01T02:03:51.906Z,100.00
2023-04-01T02:06:22.524Z,100.00
2023-04-01T02:08:50.148Z,100.00
2023-04-01T02:11:21.279Z,100.00
2023-04-01T02:13:57.588Z,100.00
2023-04-01T02:16:57.026Z,100.00
2023-04-01T02:19:27.809Z,100.00
2023-04-01T02:21:58.932Z,100.00
2023-04-01T02:24:27.909Z,100.00
2023-04-01T02:26:55.123Z,100.00
2023-04-01T02:29:24.517Z,100.00
2023-04-01T02:31:52.714Z,100.00
2023-04-01T02:34:21.244Z,100.00
2023-04-01T02:36:49.451Z,100.00
2023-04-01T02:39:17.292Z,100.00
2023-04-01T02:41:46.591Z,100.00
2023-04-01T02:44:15.366Z,100.00
2023-04-01T02:46:44.216Z,100.00
2023-04-01T02:49:12.083Z,100.00
2023-04-01T02:51:40.185Z,100.00
2023-04-01T02:54:08.930Z,100.00
2023-04-01T02:56:36.670Z,100.00
2023-04-01T02:59:03.949Z,100.00
2023-04-01T03:01:31.533Z,100.00
2023-04-01T03:03:58.874Z,100.00
2023-04-01T03:06:26.261Z,100.00
2023-04-01T03:08:53.597Z,100.00
2023-04-01T03:11:21.104Z,100.00
2023-04-01T03:13:48.476Z,100.00
2023-04-01T03:16:16.624Z,100.00
2023-04-01T03:18:45.001Z,100.00
2023-04-01T03:21:16.863Z,100.00
2023-04-01T03:23:44.866Z,100.00
2023-04-01T03:26:12.165Z,100.00
2023-04-01T03:28:39.460Z,100.00
2023-04-01T03:31:06.922Z,100.00
2023-04-01T03:33:41.693Z,100.00
2023-04-01T03:36:09.539Z,100.00
2023-04-01T03:38:36.933Z,100.00
2023-04-01T03:41:04.388Z,100.00
2023-04-01T03:43:33.528Z,100.00
2023-04-01T03:46:01.296Z,100.00
2023-04-01T03:48:28.981Z,100.00
2023-04-01T03:50:56.490Z,100.00
2023-04-01T03:53:24.264Z,100.00
2023-04-01T03:55:52.673Z,100.00
2023-04-01T03:58:20.343Z,100.00
2023-04-01T04:00:50.479Z,100.00
2023-04-01T04:03:17.866Z,100.00
2023-04-01T04:05:49.510Z,100.00
2023-04-01T04:08:18.314Z,100.00
2023-04-01T04:10:45.973Z,100.00
2023-04-01T04:13:13.282Z,100.00
2023-04-01T04:15:48.017Z,100.00
2023-04-01T04:18:42.912Z,100.00
2023-04-01T04:21:13.154Z,100.00
2023-04-01T04:23:40.828Z,96.73
2023-04-01T04:29:54.240Z,93.02
2023-04-01T04:37:20.288Z,91.81
2023-04-01T04:39:47.709Z,90.37
2023-04-01T04:42:15.648Z,90.83
2023-04-01T04:44:43.146Z,88.79
2023-04-01T04:54:18.079Z,77.72
2023-04-01T04:57:05.288Z,78.09
2023-04-01T04:59:40.888Z,77.42
2023-04-01T05:02:36.976Z,79.70
2023-04-01T05:05:04.471Z,80.86
2023-04-01T05:07:32.166Z,80.97
2023-04-01T05:09:59.423Z,80.49
2023-04-01T05:12:29.472Z,80.51
2023-04-01T05:15:00.614Z,80.82
2023-04-01T05:17:28.423Z,80.77
2023-04-01T05:19:55.858Z,81.36
2023-04-01T05:22:23.375Z,82.23
2023-04-01T05:24:51.331Z,79.22
2023-04-01T05:27:20.047Z,77.94
2023-04-01T05:29:47.525Z,76.40
2023-04-01T05:32:34.774Z,76.04
2023-04-01T05:35:04.573Z,74.32
2023-04-01T05:37:31.929Z,74.83
2023-04-01T05:39:59.922Z,72.47
2023-04-01T05:42:27.576Z,67.78
2023-04-01T05:44:55.048Z,64.60
2023-04-01T05:47:48.506Z,62.15
2023-04-01T05:50:16.663Z,61.93
2023-04-01T05:52:44.005Z,59.30
2023-04-01T05:55:11.360Z,57.76
2023-04-01T05:57:39.289Z,55.79
2023-04-01T06:00:07.307Z,54.88
2023-04-01T06:02:40.480Z,51.27
2023-04-01T06:05:25.559Z,50.44
2023-04-01T06:07:56.553Z,48.68
2023-04-01T06:10:26.909Z,46.76
2023-04-01T06:12:54.368Z,45.56
2023-04-01T06:15:29.414Z,46.19
2023-04-01T06:18:12.502Z,45.84
2023-04-01T06:20:39.720Z,45.34
2023-04-01T06:23:22.642Z,45.06
2023-04-01T06:26:09.458Z,44.99
2023-04-01T06:28:40.992Z,44.55
2023-04-01T06:31:12.298Z,43.84
2023-04-01T06:33:48.542Z,43.28
2023-04-01T06:36:15.928Z,43.92
2023-04-01T06:38:50.019Z,45.10
2023-04-01T06:41:43.622Z,47.32
2023-04-01T06:47:35.611Z,48.28
2023-04-01T06:50:23.057Z,48.89
2023-04-01T06:53:21.745Z,48.15
2023-04-01T06:56:27.820Z,47.09
2023-04-01T06:59:14.143Z,45.68
2023-04-01T07:01:44.084Z,45.85
2023-04-01T07:04:14.481Z,45.94
2023-04-01T07:06:59.774Z,43.67
2023-04-01T07:09:29.909Z,40.79
2023-04-01T07:12:18.419Z,40.22
2023-04-01T07:15:15.396Z,39.97
2023-04-01T07:17:45.350Z,41.28
2023-04-01T07:20:24.016Z,40.13
2023-04-01T07:22:52.895Z,40.10
2023-04-01T07:26:01.181Z,40.48
2023-04-01T07:28:31.843Z,40.19
2023-04-01T07:31:17.832Z,40.08
2023-04-01T07:33:52.435Z,40.63
2023-04-01T07:36:26.143Z,41.18
2023-04-01T07:39:00.609Z,41.73
2023-04-01T07:41:47.771Z,42.06
2023-04-01T07:44:21.159Z,43.30
2023-04-01T07:46:52.735Z,44.11
2023-04-01T07:49:38.984Z,44.61
2023-04-01T07:52:10.614Z,45.25
2023-04-01T07:54:45.209Z,45.15
2023-04-01T07:57:18.527Z,44.83
2023-04-01T07:59:55.661Z,45.22
2023-04-01T08:02:40.520Z,45.15
2023-04-01T08:05:10.994Z,45.80
2023-04-01T08:07:53.670Z,45.60
2023-04-01T08:10:51.686Z,45.95
2023-04-01T08:13:48.491Z,46.90
2023-04-01T08:16:38.717Z,46.01
2023-04-01T08:19:25.902Z,46.22
2023-04-01T08:21:59.026Z,46.42
2023-04-01T08:24:29.678Z,45.04
2023-04-01T08:27:01.787Z,44.71
2023-04-01T08:29:32.959Z,43.60
2023-04-01T08:32:07.178Z,43.95
2023-04-01T08:34:43.645Z,43.60
2023-04-01T08:37:22.371Z,44.18
2023-04-01T08:40:14.062Z,43.88
2023-04-01T08:42:56.269Z,43.68
2023-04-01T08:45:30.292Z,43.01
2023-04-01T08:48:10.008Z,42.62
2023-04-01T08:50:42.216Z,42.38
2023-04-01T08:53:37.152Z,43.11
2023-04-01T08:56:15.185Z,43.09
2023-04-01T08:58:44.568Z,43.25
2023-04-01T09:01:35.073Z,42.63
2023-04-01T09:04:05.123Z,42.55
2023-04-01T09:06:35.631Z,41.16
2023-04-01T09:09:18.200Z,41.35
2023-04-01T09:12:07.511Z,41.18
2023-04-01T09:14:58.939Z,41.86
2023-04-01T09:17:50.421Z,41.37
2023-04-01T09:20:17.811Z,40.71
2023-04-01T09:22:48.230Z,40.82
2023-04-01T09:25:25.063Z,40.46
2023-04-01T09:27:52.295Z,39.18
2023-04-01T09:30:19.733Z,37.69
2023-04-01T09:32:50.681Z,38.39
2023-04-01T09:35:31.093Z,39.70
2023-04-01T09:38:04.586Z,39.91
2023-04-01T09:40:38.710Z,39.83
2023-04-01T09:43:18.032Z,37.75
2023-04-01T09:45:49.999Z,36.90
2023-04-01T09:48:38.886Z,36.36
2023-04-01T09:51:27.677Z,35.87
2023-04-01T09:54:14.507Z,35.95
2023-04-01T09:56:57.898Z,35.69
2023-04-01T09:59:48.734Z,36.10
2023-04-01T10:02:34.369Z,35.68
2023-04-01T10:05:23.824Z,35.40
2023-04-01T10:08:10.411Z,34.89
2023-04-01T10:10:56.634Z,35.10
2023-04-01T10:13:30.263Z,34.76
2023-04-01T10:16:17.402Z,34.73
2023-04-01T10:18:47.791Z,34.66
2023-04-01T10:21:35.538Z,34.30
2023-04-01T10:24:21.529Z,34.38
2023-04-01T10:26:56.231Z,33.59
2023-04-01T10:30:02.641Z,33.90
2023-04-01T10:32:30.168Z,33.47
2023-04-01T10:35:00.703Z,33.69
2023-04-01T10:37:46.808Z,34.18
2023-04-01T10:40:37.432Z,33.55
2023-04-01T10:43:48.632Z,33.66
2023-04-01T10:46:18.958Z,33.49
2023-04-01T10:48:49.280Z,33.23
2023-04-01T10:51:16.788Z,33.47
2023-04-01T10:54:03.679Z,33.70
2023-04-01T10:57:03.950Z,33.03
2023-04-01T10:59:58.928Z,33.05
2023-04-01T11:03:05.339Z,32.56
2023-04-01T11:05:32.825Z,33.01
2023-04-01T11:08:26.223Z,33.21
2023-04-01T11:11:14.755Z,32.88
2023-04-01T11:14:02.334Z,33.02
2023-04-01T11:16:48.393Z,32.85
2023-04-01T11:19:40.304Z,32.65
2023-04-01T11:22:27.595Z,32.24
2023-04-01T11:25:05.328Z,32.09
2023-04-01T11:27:56.660Z,31.67
2023-04-01T11:30:30.205Z,31.69
2023-04-01T11:33:16.468Z,31.46
2023-04-01T11:36:03.637Z,32.03
2023-04-01T11:38:31.464Z,32.16
2023-04-01T11:41:11.287Z,31.98
2023-04-01T11:44:17.118Z,31.54
2023-04-01T11:47:36.536Z,31.54
2023-04-01T11:50:06.970Z,31.49
2023-04-01T11:52:43.346Z,31.85
2023-04-01T11:55:24.495Z,31.80
2023-04-01T11:58:07.655Z,31.21
2023-04-01T12:00:43.871Z,31.07
2023-04-01T12:03:30.193Z,31.42
2023-04-01T12:06:11.705Z,31.14
2023-04-01T12:08:54.920Z,30.78
2023-04-01T12:11:42.351Z,30.45
2023-04-01T12:14:27.986Z,30.49
2023-04-01T12:16:58.334Z,30.32
2023-04-01T12:19:26.372Z,30.09
2023-04-01T12:22:09.665Z,29.72
2023-04-01T12:24:36.905Z,29.63
2023-04-01T12:27:07.224Z,29.71
2023-04-01T12:29:53.246Z,29.48
2023-04-01T12:32:32.637Z,29.51
2023-04-01T12:35:07.981Z,29.27
2023-04-01T12:37:35.312Z,28.62
2023-04-01T12:40:18.525Z,28.62
2023-04-01T12:42:53.486Z,28.83
2023-04-01T12:45:33.035Z,28.99
2023-04-01T12:48:11.855Z,29.22
2023-04-01T12:50:48.019Z,29.14
2023-04-01T12:53:15.338Z,29.32
2023-04-01T12:55:46.467Z,29.25
2023-04-01T12:58:40.018Z,29.58
2023-04-01T13:01:26.598Z,29.49
2023-04-01T13:04:08.018Z,29.60
2023-04-01T13:06:54.384Z,29.25
2023-04-01T13:09:39.811Z,28.78
2023-04-01T13:12:07.221Z,29.38
2023-04-01T13:14:52.381Z,29.47
2023-04-01T13:17:30.516Z,29.55
2023-04-01T13:20:05.657Z,29.86
2023-04-01T13:22:52.574Z,29.36
2023-04-01T13:25:29.199Z,29.69
2023-04-01T13:28:01.765Z,29.67
2023-04-01T13:30:34.723Z,29.61
2023-04-01T13:33:17.477Z,30.03
2023-04-01T13:35:50.051Z,29.85
2023-04-01T13:38:17.272Z,30.31
2023-04-01T13:40:55.729Z,30.30
2023-04-01T13:43:44.577Z,30.14
2023-04-01T13:46:35.449Z,30.18
2023-04-01T13:49:21.648Z,30.27
2023-04-01T13:51:53.525Z,30.36
2023-04-01T13:54:53.088Z,30.62
2023-04-01T13:57:40.743Z,30.67
2023-04-01T14:00:20.326Z,30.62
2023-04-01T14:03:06.198Z,30.87
2023-04-01T14:05:48.664Z,30.81
2023-04-01T14:08:34.366Z,30.84
2023-04-01T14:11:07.880Z,30.91
2023-04-01T14:13:44.676Z,30.90
2023-04-01T14:16:21.916Z,30.89
2023-04-01T14:19:00.959Z,30.85
2023-04-01T14:21:40.520Z,31.03
2023-04-01T14:24:15.852Z,31.42
2023-04-01T14:26:53.585Z,31.05
2023-04-01T14:29:39.453Z,31.40
2023-04-01T14:32:25.554Z,31.70
2023-04-01T14:34:52.817Z,31.40
2023-04-01T14:37:39.282Z,31.83
2023-04-01T14:40:12.790Z,31.71
2023-04-01T14:42:49.352Z,31.56
2023-04-01T14:45:35.865Z,32.07
2023-04-01T14:48:22.122Z,32.19
2023-04-01T14:50:52.280Z,32.23
2023-04-01T14:53:25.779Z,32.06
2023-04-01T14:56:00.231Z,32.30
2023-04-01T14:58:47.589Z,32.32
2023-04-01T15:01:37.038Z,32.47
2023-04-01T15:04:10.242Z,32.45
2023-04-01T15:06:56.321Z,32.52
2023-04-01T15:09:32.386Z,32.37
2023-04-01T15:11:59.619Z,32.38
2023-04-01T15:14:41.015Z,32.45
2023-04-01T15:17:26.944Z,32.47
2023-04-01T15:20:00.378Z,32.27
2023-04-01T15:22:27.640Z,32.76
2023-04-01T15:25:07.158Z,32.82
2023-04-01T15:28:03.947Z,32.63
2023-04-01T15:30:37.378Z,32.78
2023-04-01T15:33:23.274Z,32.57
2023-04-01T15:36:00.163Z,32.78
2023-04-01T15:38:43.173Z,32.62
2023-04-01T15:41:29.211Z,32.72
2023-04-01T15:43:56.517Z,33.00
2023-04-01T15:46:23.805Z,32.96
2023-04-01T15:49:00.900Z,33.34
2023-04-01T15:51:30.884Z,33.26
2023-04-01T15:54:01.221Z,33.53
2023-04-01T15:56:43.827Z,33.14
2023-04-01T15:59:26.528Z,33.41
2023-04-01T16:02:09.273Z,32.80
2023-04-01T16:04:46.492Z,33.71
2023-04-01T16:07:32.305Z,33.85
2023-04-01T16:10:05.785Z,33.36
2023-04-01T16:12:51.521Z,33.35
2023-04-01T16:15:24.958Z,34.37
2023-04-01T16:18:16.243Z,33.67
2023-04-01T16:21:02.125Z,34.62
2023-04-01T16:23:29.399Z,34.79
2023-04-01T16:26:19.563Z,35.00
2023-04-01T16:28:53.008Z,35.40
2023-04-01T16:31:58.953Z,35.78
2023-04-01T16:34:31.775Z,36.20
2023-04-01T16:37:06.656Z,35.91
2023-04-01T16:39:47.756Z,36.15
2023-04-01T16:42:23.839Z,36.27
2023-04-01T16:44:55.221Z,36.73
2023-04-01T16:47:29.783Z,36.32
2023-04-01T16:50:35.881Z,36.93
2023-04-01T16:53:12.802Z,36.28
2023-04-01T16:55:45.189Z,37.01
2023-04-01T16:58:15.646Z,37.14
2023-04-01T17:00:49.751Z,37.55
2023-04-01T17:03:42.047Z,37.76
2023-04-01T17:06:09.296Z,37.85
2023-04-01T17:08:52.068Z,37.89
2023-04-01T17:11:24.214Z,38.11
2023-04-01T17:14:09.853Z,38.07
2023-04-01T17:16:37.133Z,37.16
2023-04-01T17:19:16.206Z,37.63
2023-04-01T17:21:43.477Z,37.88
2023-04-01T17:24:10.722Z,37.15
2023-04-01T17:26:47.800Z,37.72
2023-04-01T17:29:21.378Z,39.08
2023-04-01T17:31:51.743Z,38.89
2023-04-01T17:34:19.058Z,38.60
2023-04-01T17:36:56.651Z,39.14
2023-04-01T17:39:23.993Z,40.11
2023-04-01T17:41:54.416Z,40.16
2023-04-01T17:44:33.923Z,40.20
2023-04-01T17:47:04.280Z,40.39
2023-04-01T17:49:37.377Z,40.12
2023-04-01T17:52:24.919Z,40.33
2023-04-01T17:54:58.634Z,40.38
2023-04-01T17:57:52.755Z,41.48
2023-04-01T18:00:42.327Z,42.42
2023-04-01T18:03:36.948Z,42.61
2023-04-01T18:06:11.418Z,42.54
2023-04-01T18:08:56.968Z,43.19
2023-04-01T18:11:28.519Z,43.33
2023-04-01T18:14:02.590Z,42.32
2023-04-01T18:16:52.965Z,43.73
2023-04-01T18:19:23.302Z,44.30
2023-04-01T18:21:53.961Z,44.46
2023-04-01T18:24:32.244Z,42.97
2023-04-01T18:27:04.616Z,44.94
2023-04-01T18:29:43.463Z,42.96
2023-04-01T18:32:28.886Z,44.05
2023-04-01T18:35:01.811Z,44.97
2023-04-01T18:37:32.770Z,45.55
2023-04-01T18:40:12.517Z,45.44
2023-04-01T18:43:09.164Z,45.01
2023-04-01T18:45:39.454Z,45.59
2023-04-01T18:48:16.246Z,45.41
2023-04-01T18:50:43.583Z,43.68
2023-04-01T18:53:30.860Z,42.22
2023-04-01T18:56:06.570Z,43.82
2023-04-01T18:58:35.941Z,42.64
2023-04-01T19:01:06.242Z,45.15
2023-04-01T19:03:33.558Z,44.63
2023-04-01T19:06:02.303Z,44.42
2023-04-01T19:08:34.326Z,45.26
2023-04-01T19:11:04.672Z,46.37
2023-04-01T19:13:47.398Z,44.90
2023-04-01T19:16:23.866Z,45.61
2023-04-01T19:19:04.228Z,46.93
2023-04-01T19:21:31.723Z,46.68
2023-04-01T19:24:18.272Z,47.28
2023-04-01T19:26:59.359Z,46.70
2023-04-01T19:29:26.601Z,47.25
2023-04-01T19:32:12.885Z,48.30
2023-04-01T19:34:58.943Z,48.77
2023-04-01T19:37:32.022Z,47.30
2023-04-01T19:40:18.167Z,48.88
2023-04-01T19:42:51.991Z,49.88
2023-04-01T19:45:22.385Z,48.85
2023-04-01T19:47:59.006Z,49.48
2023-04-01T19:50:37.019Z,50.74
2023-04-01T19:53:12.963Z,51.01
2023-04-01T19:55:40.259Z,50.91
2023-04-01T19:58:30.810Z,51.10
2023-04-01T20:01:02.214Z,52.20
2023-04-01T20:03:38.736Z,52.38
2023-04-01T20:06:23.965Z,52.82
2023-04-01T20:09:09.946Z,52.69
2023-04-01T20:11:47.926Z,53.97
2023-04-01T20:14:18.366Z,53.33
2023-04-01T20:16:51.977Z,53.44
2023-04-01T20:19:28.502Z,53.52
2023-04-01T20:21:59.126Z,53.28
2023-04-01T20:24:38.859Z,51.47
2023-04-01T20:27:12.007Z,53.02
2023-04-01T20:29:57.165Z,53.13
2023-04-01T20:32:34.341Z,53.17
2023-04-01T20:35:01.845Z,53.26
2023-04-01T20:37:36.925Z,52.86
2023-04-01T20:40:21.605Z,53.30
2023-04-01T20:42:48.816Z,54.76
2023-04-01T20:45:31.610Z,54.58
2023-04-01T20:48:04.758Z,54.12
2023-04-01T20:50:47.512Z,53.38
2023-04-01T20:53:21.565Z,54.42
2023-04-01T20:55:51.890Z,54.88
2023-04-01T20:58:19.150Z,55.81
2023-04-01T21:01:12.064Z,53.59
2023-04-01T21:03:42.314Z,49.87
2023-04-01T21:06:15.474Z,49.89
2023-04-01T21:09:04.488Z,48.66
2023-04-01T21:11:44.089Z,51.64
2023-04-01T21:14:33.985Z,50.77
2023-04-01T21:17:07.590Z,48.32
2023-04-01T21:19:53.889Z,47.21
2023-04-01T21:22:21.434Z,46.85
2023-04-01T21:24:58.212Z,46.52
2023-04-01T21:27:37.565Z,46.36
2023-04-01T21:30:04.876Z,46.15
2023-04-01T21:32:35.178Z,46.39
2023-04-01T21:35:19.790Z,46.53
2023-04-01T21:37:59.196Z,46.07
2023-04-01T21:40:36.030Z,47.56
2023-04-01T21:43:21.990Z,45.93
2023-04-01T21:46:08.011Z,46.04
2023-04-01T21:48:41.384Z,45.85
2023-04-01T21:51:20.646Z,47.09
2023-04-01T21:54:06.409Z,46.73
2023-04-01T21:56:42.821Z,46.31
2023-04-01T21:59:10.085Z,45.98
2023-04-01T22:01:56.363Z,49.57
2023-04-01T22:04:23.768Z,51.60
2023-04-01T22:07:01.254Z,51.97
2023-04-01T22:09:28.545Z,52.75
2023-04-01T22:11:56.074Z,52.98
2023-04-01T22:14:29.448Z,53.59
2023-04-01T22:17:04.744Z,53.43
2023-04-01T22:19:36.103Z,54.08
2023-04-01T22:22:14.828Z,55.09
2023-04-01T22:25:02.795Z,56.15
2023-04-01T22:27:30.023Z,56.38
2023-04-01T22:30:05.546Z,55.89
2023-04-01T22:32:38.844Z,56.52
2023-04-01T22:35:06.095Z,55.18
2023-04-01T22:37:51.051Z,54.44
2023-04-01T22:40:23.975Z,55.04
2023-04-01T22:42:57.254Z,54.54
2023-04-01T22:45:27.769Z,52.98
2023-04-01T22:47:55.162Z,53.88
2023-04-01T22:50:23.237Z,52.43
2023-04-01T22:52:55.905Z,50.96
2023-04-01T22:55:25.725Z,53.65
2023-04-01T22:57:57.386Z,54.85
2023-04-01T23:00:29.564Z,54.85
2023-04-01T23:03:11.695Z,54.58
2023-04-01T23:05:44.611Z,54.81
2023-04-01T23:08:21.664Z,53.59
2023-04-01T23:11:00.003Z,51.68
2023-04-01T23:13:31.491Z,53.72
2023-04-01T23:15:59.410Z,54.44
2023-04-01T23:18:35.929Z,54.59
2023-04-01T23:21:19.952Z,53.51
2023-04-01T23:23:54.444Z,52.18
2023-04-01T23:26:24.679Z,54.54
2023-04-01T23:28:56.990Z,53.38
2023-04-01T23:31:32.798Z,54.76
2023-04-01T23:34:02.260Z,54.73
2023-04-01T23:36:31.218Z,55.82
2023-04-01T23:39:01.163Z,56.79
2023-04-01T23:41:31.122Z,56.71
2023-04-01T23:44:12.619Z,55.78
2023-04-01T23:46:41.297Z,57.62
2023-04-01T23:49:14.422Z,59.26
2023-04-01T23:51:50.660Z,59.29
2023-04-01T23:54:19.751Z,60.38
2023-04-01T23:56:50.067Z,59.43
2023-04-01T23:59:23.908Z,60.80
